Aviation Digital Data Service (ADDS)

Output produced by METARs form (1337 UTC 23 January 2019)
found at http://www.aviationweather.gov/metar/data/
 
Forecast for: VVNB (HANOI/NOIBAI INT, VN)
Text: TAF VVNB 231100Z 2312/2412 05005KT 3200 BR SCT030 BKN060
Forecast period: 1200 to 1800 UTC 23 January 2019
Forecast type: FROM: standard forecast or significant change
Winds: from the NE (50 degrees) at 6 MPH (5 knots; 2.6 m/s)
Visibility: 1.99 miles (3.20 km)
Ceiling: 6000 feet AGL
Clouds: scattered clouds at 3000 feet AGL
broken clouds at 6000 feet AGL
Weather: BR  (mist)
Text: BECMG 2318/2319 2000 BR
Forecast period: 1800 UTC 23 January 2019 to 0200 UTC 24 January 2019
Forecast type: BECOMING: Conditions expected to become as follows by 1900 UTC 23 January 2019
Winds: from the NE (50 degrees) at 6 MPH (5 knots; 2.6 m/s)
Visibility: 1.24 miles (2.00 km)
Ceiling: 6000 feet AGL
Clouds: scattered clouds at 3000 feet AGL
broken clouds at 6000 feet AGL
Weather: BR  (mist)
Text: BECMG 2402/2403 6000 NSW
Forecast period: 0200 to 1200 UTC 24 January 2019
Forecast type: BECOMING: Conditions expected to become as follows by 0300 UTC 24 January 2019
Winds: from the NE (50 degrees) at 6 MPH (5 knots; 2.6 m/s)
Visibility: 4 miles (6 km)
Ceiling: 6000 feet AGL
Clouds: scattered clouds at 3000 feet AGL
broken clouds at 6000 feet AGL
Weather: NSW  (no significant weather)